createdAt,value
2023-09-19T00:00:48.807Z,76.20
2023-09-19T00:03:16.132Z,76.30
2023-09-19T00:05:46.629Z,76.30
2023-09-19T00:08:17.136Z,76.40
2023-09-19T00:10:44.439Z,76.40
2023-09-19T00:13:15.273Z,76.50
2023-09-19T00:15:50.772Z,76.50
2023-09-19T00:18:25.466Z,76.60
2023-09-19T00:20:53.729Z,76.60
2023-09-19T00:23:21.320Z,76.60
2023-09-19T00:25:48.730Z,76.70
2023-09-19T00:28:15.829Z,76.60
2023-09-19T00:30:46.744Z,76.70
2023-09-19T00:33:17.922Z,76.70
2023-09-19T00:35:54.808Z,76.70
2023-09-19T00:38:25.851Z,76.80
2023-09-19T00:40:52.764Z,76.80
2023-09-19T00:43:19.684Z,76.80
2023-09-19T00:45:49.651Z,76.90
2023-09-19T00:48:18.446Z,76.90
2023-09-19T00:50:45.687Z,76.90
2023-09-19T00:53:15.554Z,77.00
2023-09-19T00:55:43.872Z,77.00
2023-09-19T00:58:11.487Z,77.00
2023-09-19T01:00:38.721Z,77.10
2023-09-19T01:03:07.844Z,77.10
2023-09-19T01:05:35.086Z,77.10
2023-09-19T01:08:02.362Z,77.20
2023-09-19T01:10:29.285Z,77.20
2023-09-19T01:13:21.005Z,77.20
2023-09-19T01:16:01.963Z,77.20
2023-09-19T01:18:31.442Z,77.30
2023-09-19T01:21:16.782Z,77.30
2023-09-19T01:24:09.205Z,77.30
2023-09-19T01:26:59.190Z,77.30
2023-09-19T01:29:40.872Z,77.30
2023-09-19T01:32:08.223Z,77.30
2023-09-19T01:34:48.601Z,77.30
2023-09-19T01:37:20.738Z,77.30
2023-09-19T01:39:49.841Z,77.30
2023-09-19T01:42:43.526Z,77.30
2023-09-19T01:45:34.330Z,77.30
2023-09-19T01:48:20.159Z,77.30
2023-09-19T01:51:07.472Z,77.30
2023-09-19T01:53:58.641Z,77.40
2023-09-19T01:57:00.472Z,77.40
2023-09-19T01:59:29.696Z,77.40
2023-09-19T02:01:56.664Z,77.30
2023-09-19T02:04:23.655Z,77.30
2023-09-19T02:06:50.870Z,77.40
2023-09-19T02:09:17.775Z,77.40
2023-09-19T02:11:44.655Z,77.40
2023-09-19T02:14:11.545Z,77.40
2023-09-19T02:16:38.823Z,77.40
2023-09-19T02:19:07.260Z,77.40
2023-09-19T02:21:34.280Z,77.40
2023-09-19T02:24:01.425Z,77.40
2023-09-19T02:26:28.744Z,77.50
2023-09-19T02:28:55.863Z,77.50
2023-09-19T02:31:22.878Z,77.50
2023-09-19T02:33:49.852Z,77.50
2023-09-19T02:36:18.629Z,77.60
2023-09-19T02:38:45.718Z,77.60
2023-09-19T02:41:13.211Z,77.60
2023-09-19T02:43:40.546Z,77.60
2023-09-19T02:46:07.892Z,77.60
2023-09-19T02:48:37.183Z,77.70
2023-09-19T02:51:06.719Z,77.70
2023-09-19T02:53:33.824Z,77.70
2023-09-19T02:56:00.702Z,77.80
2023-09-19T02:58:29.174Z,77.80
2023-09-19T03:00:56.410Z,77.80
2023-09-19T03:03:24.250Z,77.80
2023-09-19T03:05:54.782Z,77.80
2023-09-19T03:08:23.084Z,77.80
2023-09-19T03:10:50.241Z,77.90
2023-09-19T03:13:17.492Z,77.80
2023-09-19T03:15:51.879Z,77.90
2023-09-19T03:18:19.158Z,77.90
2023-09-19T03:20:56.502Z,77.90
2023-09-19T03:23:23.897Z,77.90
2023-09-19T03:25:51.571Z,77.90
2023-09-19T03:28:19.099Z,77.90
2023-09-19T03:30:46.130Z,77.90
2023-09-19T03:33:13.629Z,77.90
2023-09-19T03:35:41.210Z,78.00
2023-09-19T03:38:08.131Z,78.00
2023-09-19T03:40:36.082Z,78.00
2023-09-19T03:43:03.526Z,78.10
2023-09-19T03:45:30.397Z,78.20
2023-09-19T03:47:57.451Z,78.20
2023-09-19T03:50:24.349Z,78.30
2023-09-19T03:52:51.295Z,78.30
2023-09-19T03:55:18.328Z,78.40
2023-09-19T03:57:50.347Z,78.40
2023-09-19T04:00:19.763Z,78.50
2023-09-19T04:02:47.555Z,78.50
2023-09-19T04:05:14.635Z,78.60
2023-09-19T04:07:41.741Z,78.60
2023-09-19T04:10:10.341Z,78.70
2023-09-19T04:12:37.187Z,78.70
2023-09-19T04:15:04.595Z,78.80
2023-09-19T04:17:31.662Z,78.90
2023-09-19T04:19:58.704Z,79.00
2023-09-19T04:22:25.708Z,79.00
2023-09-19T04:24:53.789Z,79.20
2023-09-19T04:27:20.640Z,79.20
2023-09-19T04:29:47.527Z,79.20
2023-09-19T04:32:14.530Z,79.80
2023-09-19T04:34:41.532Z,79.40
2023-09-19T04:37:08.803Z,79.40
2023-09-19T04:39:35.655Z,79.50
2023-09-19T04:42:02.579Z,79.60
2023-09-19T04:44:29.464Z,79.70
2023-09-19T04:46:57.156Z,79.70
2023-09-19T04:49:26.374Z,79.90
2023-09-19T04:51:54.878Z,80.00
2023-09-19T04:54:21.772Z,80.00
2023-09-19T04:56:48.624Z,80.10
2023-09-19T04:59:16.244Z,80.20
2023-09-19T05:01:43.232Z,80.20
2023-09-19T05:04:10.470Z,80.30
2023-09-19T05:06:37.333Z,80.40
2023-09-19T05:09:06.617Z,80.40
2023-09-19T05:11:34.431Z,80.40
2023-09-19T05:14:05.075Z,80.50
2023-09-19T05:16:35.593Z,80.40
2023-09-19T05:19:02.930Z,80.50
2023-09-19T05:21:31.327Z,80.50
2023-09-19T05:23:58.157Z,80.50
2023-09-19T05:26:25.123Z,80.50
2023-09-19T05:28:52.115Z,80.50
2023-09-19T05:31:19.113Z,80.60
2023-09-19T05:33:46.080Z,80.60
2023-09-19T05:36:13.181Z,80.80
2023-09-19T05:38:42.220Z,80.70
2023-09-19T05:41:11.158Z,80.70
2023-09-19T05:43:38.941Z,80.70
2023-09-19T05:46:06.051Z,80.80
2023-09-19T05:48:33.721Z,80.80
2023-09-19T05:51:02.046Z,80.90
2023-09-19T05:53:29.796Z,80.90
2023-09-19T05:55:56.901Z,81.00
2023-09-19T05:58:24.246Z,81.10
2023-09-19T06:00:51.285Z,81.10
2023-09-19T06:03:20.351Z,81.20
2023-09-19T06:05:50.678Z,81.80
2023-09-19T06:08:18.384Z,81.30
2023-09-19T06:10:45.391Z,81.40
2023-09-19T06:13:12.366Z,81.40
2023-09-19T06:15:40.272Z,81.40
2023-09-19T06:18:13.350Z,81.60
2023-09-19T06:20:45.658Z,81.60
2023-09-19T06:23:13.042Z,81.60
2023-09-19T06:25:40.419Z,81.60
2023-09-19T06:28:09.410Z,81.80
2023-09-19T06:30:37.273Z,81.80
2023-09-19T06:33:05.012Z,81.90
2023-09-19T06:35:34.085Z,82.00
2023-09-19T06:38:04.252Z,82.10
2023-09-19T06:40:32.266Z,82.10
2023-09-19T06:42:59.263Z,82.20
2023-09-19T06:45:28.327Z,82.30
2023-09-19T06:47:59.316Z,82.40
2023-09-19T06:50:27.000Z,82.50
2023-09-19T06:52:55.198Z,82.70
2023-09-19T06:55:24.997Z,82.90
2023-09-19T06:57:52.018Z,83.10
2023-09-19T07:00:25.598Z,83.20
2023-09-19T07:03:02.646Z,83.30
2023-09-19T07:05:30.525Z,83.30
2023-09-19T07:07:57.591Z,83.20
2023-09-19T07:10:28.556Z,83.20
2023-09-19T07:12:59.517Z,83.30
2023-09-19T07:15:29.873Z,83.20
2023-09-19T07:17:57.772Z,83.20
2023-09-19T07:20:28.571Z,83.20
2023-09-19T07:23:00.948Z,83.20
2023-09-19T07:25:29.198Z,83.20
2023-09-19T07:28:02.327Z,83.20
2023-09-19T07:30:29.538Z,83.30
2023-09-19T07:32:56.530Z,83.30
2023-09-19T07:35:23.677Z,83.40
2023-09-19T07:37:51.396Z,83.40
2023-09-19T07:40:19.708Z,83.30
2023-09-19T07:42:54.294Z,83.30
2023-09-19T07:45:21.212Z,83.40
2023-09-19T07:47:51.835Z,83.30
2023-09-19T07:50:21.885Z,83.40
2023-09-19T07:52:49.297Z,83.50
2023-09-19T07:55:21.245Z,83.40
2023-09-19T07:57:48.410Z,83.40
2023-09-19T08:00:15.628Z,83.40
2023-09-19T08:02:46.292Z,83.40
2023-09-19T08:05:19.414Z,83.30
2023-09-19T08:07:50.118Z,83.30
2023-09-19T08:10:17.424Z,83.40
2023-09-19T08:12:47.620Z,83.40
2023-09-19T08:15:19.297Z,83.40
2023-09-19T08:17:46.285Z,83.50
2023-09-19T08:20:23.007Z,83.50
2023-09-19T08:22:53.704Z,83.50
2023-09-19T08:25:20.806Z,83.50
2023-09-19T08:27:49.499Z,83.60
2023-09-19T08:30:28.137Z,83.60
2023-09-19T08:33:01.563Z,83.60
2023-09-19T08:35:28.863Z,83.70
2023-09-19T08:37:56.913Z,83.70
2023-09-19T08:40:24.464Z,83.80
2023-09-19T08:42:52.341Z,83.90
2023-09-19T08:45:19.200Z,83.90
2023-09-19T08:48:04.685Z,83.90
2023-09-19T08:50:32.102Z,83.90
2023-09-19T08:53:02.194Z,83.70
2023-09-19T08:55:29.834Z,83.40
2023-09-19T08:58:02.797Z,83.20
2023-09-19T09:00:30.015Z,82.80
2023-09-19T09:02:57.684Z,82.70
2023-09-19T09:05:25.332Z,82.60
2023-09-19T09:07:53.111Z,82.50
2023-09-19T09:10:23.733Z,82.30
2023-09-19T09:12:55.884Z,82.10
2023-09-19T09:15:30.848Z,81.90
2023-09-19T09:18:00.627Z,81.80
2023-09-19T09:20:28.104Z,81.60
2023-09-19T09:23:04.888Z,81.50
2023-09-19T09:25:59.130Z,81.30
2023-09-19T09:28:26.966Z,81.10
2023-09-19T09:30:54.202Z,81.20
2023-09-19T09:33:22.524Z,81.00
2023-09-19T09:35:53.287Z,80.80
2023-09-19T09:38:28.862Z,80.60
2023-09-19T09:41:08.639Z,80.60
2023-09-19T09:43:41.956Z,80.50
2023-09-19T09:46:30.885Z,80.40
2023-09-19T09:49:23.360Z,80.40
2023-09-19T09:52:00.745Z,80.40
2023-09-19T09:54:35.441Z,80.20
2023-09-19T09:57:15.259Z,80.10
2023-09-19T10:00:06.709Z,80.00
2023-09-19T10:02:42.230Z,79.80
2023-09-19T10:05:23.513Z,79.80
2023-09-19T10:08:01.746Z,79.80
2023-09-19T10:10:40.773Z,79.70
2023-09-19T10:17:02.593Z,79.40
2023-09-19T10:19:38.602Z,79.10
2023-09-19T10:25:56.591Z,78.80
2023-09-19T10:28:24.031Z,78.70
2023-09-19T10:30:52.547Z,78.80
2023-09-19T10:33:24.224Z,78.80
2023-09-19T10:35:59.181Z,78.80
2023-09-19T10:38:27.362Z,78.80
2023-09-19T10:40:56.120Z,78.60
2023-09-19T10:43:26.363Z,78.50
2023-09-19T10:45:54.845Z,78.40
2023-09-19T10:48:27.410Z,78.20
2023-09-19T10:51:14.526Z,78.00
2023-09-19T10:54:01.502Z,77.70
2023-09-19T10:56:33.651Z,77.50
2023-09-19T10:59:10.034Z,77.40
2023-09-19T11:01:56.076Z,77.30
2023-09-19T11:04:32.664Z,77.20
2023-09-19T11:07:13.372Z,77.10
2023-09-19T11:10:00.082Z,76.90
2023-09-19T11:12:38.542Z,76.90
2023-09-19T11:15:26.413Z,77.00
2023-09-19T11:21:36.784Z,76.90
2023-09-19T11:24:24.687Z,76.90
2023-09-19T11:31:00.060Z,77.20
2023-09-19T11:33:39.872Z,77.40
2023-09-19T11:36:17.114Z,77.50
2023-09-19T11:38:47.251Z,77.50
2023-09-19T11:41:25.060Z,77.50
2023-09-19T11:44:08.086Z,77.60
2023-09-19T11:46:35.872Z,77.70
2023-09-19T11:49:13.785Z,77.80
2023-09-19T11:51:45.727Z,78.30
2023-09-19T11:54:20.604Z,77.70
2023-09-19T11:56:50.619Z,77.80
2023-09-19T11:59:32.435Z,77.80
2023-09-19T12:02:08.231Z,77.90
2023-09-19T12:04:49.562Z,78.10
2023-09-19T12:08:12.981Z,78.30
2023-09-19T12:11:13.478Z,78.50
2023-09-19T12:13:47.820Z,78.70
2023-09-19T12:16:19.278Z,78.80
2023-09-19T12:18:47.821Z,78.90
2023-09-19T12:21:47.318Z,78.90
2023-09-19T12:24:20.805Z,78.90
2023-09-19T12:26:53.431Z,78.90
2023-09-19T12:29:21.905Z,78.90
2023-09-19T12:32:01.322Z,78.90
2023-09-19T12:34:29.394Z,79.10
2023-09-19T12:37:22.190Z,79.20
2023-09-19T12:39:52.515Z,79.30
2023-09-19T12:42:21.302Z,79.30
2023-09-19T12:44:56.511Z,79.40
2023-09-19T12:47:27.115Z,79.50
2023-09-19T12:50:30.658Z,79.60
2023-09-19T12:53:00.485Z,79.70
2023-09-19T12:55:34.240Z,79.70
2023-09-19T12:58:07.297Z,79.80
2023-09-19T13:00:42.562Z,79.90
2023-09-19T13:03:29.929Z,80.70
2023-09-19T13:06:01.944Z,80.40
2023-09-19T13:08:32.416Z,80.70
2023-09-19T13:11:14.209Z,80.90
2023-09-19T13:13:50.180Z,81.40
2023-09-19T13:16:23.543Z,81.70
2023-09-19T13:18:55.259Z,81.90
2023-09-19T13:21:29.419Z,82.10
2023-09-19T13:24:00.628Z,82.30
2023-09-19T13:26:29.452Z,82.40
2023-09-19T13:28:56.668Z,82.60
2023-09-19T13:31:25.239Z,82.80
2023-09-19T13:33:53.486Z,82.90
2023-09-19T13:36:20.533Z,83.10
2023-09-19T13:38:50.138Z,83.10
2023-09-19T13:41:17.738Z,83.20
2023-09-19T13:43:50.318Z,83.20
2023-09-19T13:46:19.274Z,83.20
2023-09-19T13:48:50.324Z,83.30
2023-09-19T13:52:03.431Z,83.40
2023-09-19T13:55:34.006Z,83.50
2023-09-19T13:59:06.030Z,83.70
2023-09-19T14:02:17.704Z,83.60
2023-09-19T14:05:34.293Z,83.50
2023-09-19T14:08:02.337Z,83.60
2023-09-19T14:10:31.385Z,83.50
2023-09-19T14:13:01.508Z,83.70
2023-09-19T14:15:43.706Z,83.80
2023-09-19T14:19:09.284Z,83.80
2023-09-19T14:21:37.725Z,83.70
2023-09-19T14:24:25.870Z,83.60
2023-09-19T14:27:13.911Z,83.60
2023-09-19T14:30:32.274Z,83.50
2023-09-19T14:33:20.322Z,83.40
2023-09-19T14:39:40.892Z,83.40
2023-09-19T14:42:07.824Z,83.20
2023-09-19T14:44:36.450Z,83.30
2023-09-19T14:47:03.530Z,83.30
2023-09-19T14:49:30.534Z,83.20
2023-09-19T14:52:04.333Z,83.20
2023-09-19T14:54:32.111Z,83.20
2023-09-19T14:57:05.495Z,83.20
2023-09-19T14:59:38.345Z,83.10
2023-09-19T15:02:06.003Z,83.20
2023-09-19T15:04:33.180Z,83.20
2023-09-19T15:07:00.764Z,83.30
2023-09-19T15:09:28.114Z,83.30
2023-09-19T15:11:55.120Z,83.30
2023-09-19T15:14:23.533Z,83.40
2023-09-19T15:16:50.549Z,83.30
2023-09-19T15:19:17.781Z,83.40
2023-09-19T15:21:45.275Z,83.30
2023-09-19T15:24:12.243Z,83.40
2023-09-19T15:26:41.804Z,83.50
2023-09-19T15:29:08.972Z,83.50
2023-09-19T15:31:37.915Z,83.50
2023-09-19T15:34:06.201Z,83.50
2023-09-19T15:36:33.243Z,83.50
2023-09-19T15:39:12.608Z,83.50
2023-09-19T15:41:40.577Z,83.50
2023-09-19T15:44:21.921Z,83.50
2023-09-19T15:46:55.943Z,83.60
2023-09-19T15:49:24.130Z,83.50
2023-09-19T15:51:51.082Z,83.50
2023-09-19T15:54:19.208Z,83.50
2023-09-19T15:56:46.750Z,83.50
2023-09-19T15:59:14.465Z,83.50
2023-09-19T16:01:42.108Z,83.50
2023-09-19T16:04:13.283Z,83.50
2023-09-19T16:06:43.691Z,83.60
2023-09-19T16:09:11.512Z,83.60
2023-09-19T16:11:38.745Z,83.70
2023-09-19T16:14:07.810Z,83.80
2023-09-19T16:16:40.745Z,83.80
2023-09-19T16:19:12.039Z,83.80
2023-09-19T16:21:41.694Z,83.80
2023-09-19T16:24:10.801Z,83.60
2023-09-19T16:26:38.620Z,83.60
2023-09-19T16:29:05.854Z,83.60
2023-09-19T16:31:34.314Z,83.50
2023-09-19T16:34:01.618Z,83.50
2023-09-19T16:36:29.432Z,83.40
2023-09-19T16:38:56.382Z,83.50
2023-09-19T16:41:23.444Z,83.50
2023-09-19T16:43:50.755Z,83.40
2023-09-19T16:46:18.147Z,83.30
2023-09-19T16:51:22.670Z,83.20
2023-09-19T16:53:50.960Z,83.20
2023-09-19T16:56:20.193Z,83.60
2023-09-19T16:58:48.857Z,83.00
2023-09-19T17:01:17.652Z,83.00
2023-09-19T17:03:44.815Z,82.90
2023-09-19T17:06:16.481Z,82.90
2023-09-19T17:08:46.677Z,82.80
2023-09-19T17:11:18.574Z,82.80
2023-09-19T17:13:48.153Z,82.70
2023-09-19T17:16:21.921Z,82.70
2023-09-19T17:18:56.394Z,82.80
2023-09-19T17:21:25.192Z,82.80
2023-09-19T17:23:53.145Z,82.80
2023-09-19T17:26:22.611Z,82.90
2023-09-19T17:28:49.962Z,83.00
2023-09-19T17:31:23.138Z,83.00
2023-09-19T17:33:51.841Z,83.10
2023-09-19T17:36:22.870Z,83.20
2023-09-19T17:38:50.873Z,83.30
2023-09-19T17:41:17.955Z,83.30
2023-09-19T17:43:46.451Z,83.40
2023-09-19T17:46:15.552Z,83.50
2023-09-19T17:48:45.407Z,83.60
2023-09-19T17:51:17.855Z,83.70
2023-09-19T17:53:45.410Z,83.80
2023-09-19T17:56:15.889Z,83.90
2023-09-19T17:58:46.745Z,84.00
2023-09-19T18:01:15.022Z,84.10
2023-09-19T18:03:42.541Z,84.20
2023-09-19T18:06:10.024Z,84.20
2023-09-19T18:08:37.449Z,84.30
2023-09-19T18:11:04.855Z,84.30
2023-09-19T18:13:31.854Z,84.40
2023-09-19T18:15:58.847Z,84.40
2023-09-19T18:18:29.505Z,84.50
2023-09-19T18:20:56.503Z,84.60
2023-09-19T18:23:23.732Z,84.60
2023-09-19T18:25:50.961Z,84.70
2023-09-19T18:28:18.357Z,84.70
2023-09-19T18:30:45.353Z,84.80
2023-09-19T18:33:12.392Z,84.90
2023-09-19T18:35:42.125Z,84.90
2023-09-19T18:38:09.825Z,85.00
2023-09-19T18:40:38.104Z,85.10
2023-09-19T18:43:05.256Z,85.10
2023-09-19T18:45:40.922Z,85.10
2023-09-19T18:48:08.589Z,85.10
2023-09-19T18:50:36.254Z,85.20
2023-09-19T18:53:04.083Z,85.20
2023-09-19T18:55:31.109Z,85.30
2023-09-19T18:57:59.788Z,85.30
2023-09-19T19:00:29.833Z,85.30
2023-09-19T19:02:57.059Z,85.40
2023-09-19T19:05:27.011Z,85.90
2023-09-19T19:07:56.872Z,85.40
2023-09-19T19:10:24.002Z,85.50
2023-09-19T19:12:51.221Z,85.50
2023-09-19T19:15:19.621Z,85.50
2023-09-19T19:17:46.889Z,85.50
2023-09-19T19:20:15.284Z,85.60
2023-09-19T19:22:42.408Z,85.60
2023-09-19T19:25:10.805Z,85.60
2023-09-19T19:27:38.434Z,85.60
2023-09-19T19:30:07.570Z,85.60
2023-09-19T19:32:34.943Z,85.60
2023-09-19T19:35:02.452Z,85.50
2023-09-19T19:37:29.507Z,85.60
2023-09-19T19:39:57.133Z,85.70
2023-09-19T19:42:25.919Z,85.80
2023-09-19T19:44:55.280Z,85.90
2023-09-19T19:47:23.093Z,85.90
2023-09-19T19:49:50.405Z,85.90
2023-09-19T19:52:17.440Z,86.00
2023-09-19T19:54:45.360Z,86.10
2023-09-19T19:57:12.837Z,86.20
2023-09-19T19:59:40.171Z,86.30
2023-09-19T20:02:07.432Z,86.40
2023-09-19T20:04:34.985Z,86.40
2023-09-19T20:07:06.779Z,86.60
2023-09-19T20:09:44.050Z,86.70
2023-09-19T20:12:11.384Z,86.90
2023-09-19T20:14:39.157Z,86.90
2023-09-19T20:17:08.088Z,87.10
2023-09-19T20:19:35.789Z,87.10
2023-09-19T20:22:03.138Z,87.30
2023-09-19T20:24:30.974Z,87.30
2023-09-19T20:27:01.733Z,87.50
2023-09-19T20:29:28.968Z,87.40
2023-09-19T20:31:57.583Z,87.50
2023-09-19T20:34:25.524Z,87.50
2023-09-19T20:36:54.267Z,87.50
2023-09-19T20:39:24.194Z,87.50
2023-09-19T20:41:52.544Z,87.50
2023-09-19T20:44:20.305Z,87.50
2023-09-19T20:46:47.835Z,87.50
2023-09-19T20:49:15.098Z,87.50
2023-09-19T20:51:43.060Z,87.50
2023-09-19T20:54:11.310Z,87.50
2023-09-19T20:56:39.291Z,87.50
2023-09-19T20:59:06.702Z,87.50
2023-09-19T21:01:34.071Z,87.50
2023-09-19T21:04:01.053Z,87.50
2023-09-19T21:06:27.966Z,87.50
2023-09-19T21:08:54.863Z,87.50
2023-09-19T21:11:22.074Z,87.50
2023-09-19T21:13:50.270Z,87.40
2023-09-19T21:16:18.295Z,87.50
2023-09-19T21:18:46.490Z,87.40
2023-09-19T21:21:13.843Z,87.30
2023-09-19T21:23:41.977Z,87.30
2023-09-19T21:26:11.403Z,87.20
2023-09-19T21:28:38.601Z,87.20
2023-09-19T21:31:07.221Z,87.10
2023-09-19T21:33:37.481Z,86.90
2023-09-19T21:36:05.539Z,86.80
2023-09-19T21:38:32.529Z,86.70
2023-09-19T21:41:10.283Z,86.70
2023-09-19T21:43:37.281Z,86.60
2023-09-19T21:46:04.502Z,86.40
2023-09-19T21:48:31.789Z,86.40
2023-09-19T21:50:58.825Z,86.30
2023-09-19T21:53:25.810Z,86.30
2023-09-19T21:55:56.416Z,86.20
2023-09-19T21:58:23.322Z,86.20
2023-09-19T22:00:53.383Z,86.10
2023-09-19T22:03:20.398Z,86.00
2023-09-19T22:05:47.412Z,86.00
2023-09-19T22:08:14.373Z,86.00
2023-09-19T22:10:45.592Z,85.90
2023-09-19T22:13:15.562Z,85.90
2023-09-19T22:15:45.439Z,85.90
2023-09-19T22:18:13.176Z,85.90
2023-09-19T22:20:55.064Z,85.90
2023-09-19T22:23:30.109Z,85.90
2023-09-19T22:25:57.150Z,85.90
2023-09-19T22:28:24.072Z,85.90
2023-09-19T22:30:51.055Z,86.40
2023-09-19T22:33:18.480Z,85.80
2023-09-19T22:35:48.637Z,85.80
2023-09-19T22:38:16.682Z,85.80
2023-09-19T22:40:52.684Z,85.80
2023-09-19T22:43:27.664Z,85.70
2023-09-19T22:45:58.050Z,85.70
2023-09-19T22:48:27.768Z,85.70
2023-09-19T22:50:59.830Z,86.20
2023-09-19T22:53:28.663Z,85.70
2023-09-19T22:55:55.991Z,85.70
2023-09-19T22:58:22.933Z,85.70
2023-09-19T23:00:50.979Z,85.70
2023-09-19T23:03:18.880Z,85.70
2023-09-19T23:05:45.936Z,85.70
2023-09-19T23:08:13.209Z,85.70
2023-09-19T23:10:48.266Z,85.70
2023-09-19T23:13:22.922Z,85.70
2023-09-19T23:15:56.848Z,85.80
2023-09-19T23:18:25.683Z,85.80
2023-09-19T23:21:01.860Z,85.80
2023-09-19T23:23:28.797Z,85.80
2023-09-19T23:25:55.683Z,85.80
2023-09-19T23:28:22.649Z,85.80
2023-09-19T23:30:54.549Z,85.80
2023-09-19T23:33:23.354Z,85.90
2023-09-19T23:35:50.358Z,85.90
2023-09-19T23:38:17.590Z,85.90
2023-09-19T23:40:51.766Z,86.00
2023-09-19T23:43:20.229Z,86.00
2023-09-19T23:45:48.039Z,86.00
2023-09-19T23:48:17.722Z,86.00
2023-09-19T23:50:44.847Z,86.20
2023-09-19T23:53:13.556Z,86.20
2023-09-19T23:55:40.589Z,86.30
2023-09-19T23:58:09.583Z,86.30
